sensor_id;sensor_type;location;lat;lon;timestamp;P1;durP1;ratioP1;P2;durP2;ratioP2
6842;SDS011;3460;52.028;8.916;2022-12-18T00:02:06;15.27;;;8.00;;
6842;SDS011;3460;52.028;8.916;2022-12-18T00:04:32;17.23;;;7.53;;
6842;SDS011;3460;52.028;8.916;2022-12-18T00:06:59;13.43;;;7.13;;
6842;SDS011;3460;52.028;8.916;2022-12-18T00:09:26;17.57;;;7.23;;
6842;SDS011;3460;52.028;8.916;2022-12-18T00:11:54;16.17;;;8.00;;
6842;SDS011;3460;52.028;8.916;2022-12-18T00:14:20;15.30;;;6.70;;
6842;SDS011;3460;52.028;8.916;2022-12-18T00:16:47;15.33;;;6.87;;
6842;SDS011;3460;52.028;8.916;2022-12-18T00:19:14;13.93;;;7.70;;
6842;SDS011;3460;52.028;8.916;2022-12-18T00:21:41;13.83;;;6.73;;
6842;SDS011;3460;52.028;8.916;2022-12-18T00:24:09;15.47;;;7.60;;
6842;SDS011;3460;52.028;8.916;2022-12-18T00:26:36;13.70;;;6.63;;
6842;SDS011;3460;52.028;8.916;2022-12-18T00:29:06;14.33;;;7.23;;
6842;SDS011;3460;52.028;8.916;2022-12-18T00:31:36;11.13;;;7.30;;
6842;SDS011;3460;52.028;8.916;2022-12-18T00:34:03;15.10;;;7.70;;
6842;SDS011;3460;52.028;8.916;2022-12-18T00:36:31;13.63;;;6.83;;
6842;SDS011;3460;52.028;8.916;2022-12-18T00:39:00;13.70;;;6.20;;
6842;SDS011;3460;52.028;8.916;2022-12-18T00:41:28;13.73;;;7.37;;
6842;SDS011;3460;52.028;8.916;2022-12-18T00:44:15;14.57;;;7.37;;
6842;SDS011;3460;52.028;8.916;2022-12-18T00:46:43;13.67;;;7.13;;
6842;SDS011;3460;52.028;8.916;2022-12-18T00:49:10;13.53;;;6.93;;
6842;SDS011;3460;52.028;8.916;2022-12-18T00:51:37;14.07;;;7.03;;
6842;SDS011;3460;52.028;8.916;2022-12-18T00:54:04;12.53;;;6.43;;
6842;SDS011;3460;52.028;8.916;2022-12-18T00:56:31;10.83;;;6.53;;
6842;SDS011;3460;52.028;8.916;2022-12-18T00:58:57;16.03;;;6.83;;
6842;SDS011;3460;52.028;8.916;2022-12-18T01:01:25;10.63;;;6.40;;
6842;SDS011;3460;52.028;8.916;2022-12-18T01:03:52;14.07;;;7.60;;
6842;SDS011;3460;52.028;8.916;2022-12-18T01:06:19;15.10;;;7.20;;
6842;SDS011;3460;52.028;8.916;2022-12-18T01:08:45;13.67;;;7.30;;
6842;SDS011;3460;52.028;8.916;2022-12-18T01:11:13;14.20;;;7.50;;
6842;SDS011;3460;52.028;8.916;2022-12-18T01:13:41;14.63;;;6.80;;
6842;SDS011;3460;52.028;8.916;2022-12-18T01:16:11;15.43;;;7.27;;
6842;SDS011;3460;52.028;8.916;2022-12-18T01:18:40;14.43;;;7.53;;
6842;SDS011;3460;52.028;8.916;2022-12-18T01:21:07;14.97;;;8.17;;
6842;SDS011;3460;52.028;8.916;2022-12-18T01:23:35;13.90;;;6.53;;
6842;SDS011;3460;52.028;8.916;2022-12-18T01:26:06;15.30;;;7.00;;
6842;SDS011;3460;52.028;8.916;2022-12-18T01:28:33;12.27;;;6.73;;
6842;SDS011;3460;52.028;8.916;2022-12-18T01:31:09;13.33;;;7.53;;
6842;SDS011;3460;52.028;8.916;2022-12-18T01:33:41;13.13;;;7.10;;
6842;SDS011;3460;52.028;8.916;2022-12-18T01:36:13;13.13;;;7.13;;
6842;SDS011;3460;52.028;8.916;2022-12-18T01:38:41;13.23;;;6.87;;
6842;SDS011;3460;52.028;8.916;2022-12-18T01:41:08;14.83;;;7.53;;
6842;SDS011;3460;52.028;8.916;2022-12-18T01:43:45;14.70;;;7.87;;
6842;SDS011;3460;52.028;8.916;2022-12-18T01:46:15;15.53;;;7.70;;
6842;SDS011;3460;52.028;8.916;2022-12-18T01:48:43;15.57;;;7.87;;
6842;SDS011;3460;52.028;8.916;2022-12-18T01:51:11;15.70;;;8.27;;
6842;SDS011;3460;52.028;8.916;2022-12-18T01:53:39;14.57;;;8.10;;
6842;SDS011;3460;52.028;8.916;2022-12-18T01:56:07;18.20;;;8.13;;
6842;SDS011;3460;52.028;8.916;2022-12-18T01:58:39;14.53;;;8.27;;
6842;SDS011;3460;52.028;8.916;2022-12-18T02:01:11;15.13;;;7.53;;
6842;SDS011;3460;52.028;8.916;2022-12-18T02:03:40;11.50;;;6.97;;
6842;SDS011;3460;52.028;8.916;2022-12-18T02:06:10;14.53;;;6.93;;
6842;SDS011;3460;52.028;8.916;2022-12-18T02:08:42;16.00;;;8.60;;
6842;SDS011;3460;52.028;8.916;2022-12-18T02:11:21;10.97;;;6.87;;
6842;SDS011;3460;52.028;8.916;2022-12-18T02:14:00;13.30;;;7.37;;
6842;SDS011;3460;52.028;8.916;2022-12-18T02:16:34;14.07;;;7.40;;
6842;SDS011;3460;52.028;8.916;2022-12-18T02:19:13;14.50;;;7.70;;
6842;SDS011;3460;52.028;8.916;2022-12-18T02:21:51;13.73;;;7.67;;
6842;SDS011;3460;52.028;8.916;2022-12-18T02:24:29;14.40;;;7.23;;
6842;SDS011;3460;52.028;8.916;2022-12-18T02:27:02;13.93;;;7.20;;
6842;SDS011;3460;52.028;8.916;2022-12-18T02:29:33;15.37;;;7.33;;
6842;SDS011;3460;52.028;8.916;2022-12-18T02:32:05;16.53;;;7.50;;
6842;SDS011;3460;52.028;8.916;2022-12-18T02:34:37;13.93;;;7.87;;
6842;SDS011;3460;52.028;8.916;2022-12-18T02:37:05;14.97;;;7.63;;
6842;SDS011;3460;52.028;8.916;2022-12-18T02:39:35;17.97;;;7.70;;
6842;SDS011;3460;52.028;8.916;2022-12-18T02:42:05;13.60;;;7.20;;
6842;SDS011;3460;52.028;8.916;2022-12-18T02:44:33;11.67;;;5.93;;
6842;SDS011;3460;52.028;8.916;2022-12-18T02:47:00;15.03;;;7.13;;
6842;SDS011;3460;52.028;8.916;2022-12-18T02:49:29;14.77;;;7.97;;
6842;SDS011;3460;52.028;8.916;2022-12-18T02:52:05;12.37;;;7.40;;
6842;SDS011;3460;52.028;8.916;2022-12-18T02:54:45;13.23;;;7.20;;
6842;SDS011;3460;52.028;8.916;2022-12-18T02:57:22;15.73;;;7.93;;
6842;SDS011;3460;52.028;8.916;2022-12-18T02:59:58;14.97;;;8.03;;
6842;SDS011;3460;52.028;8.916;2022-12-18T03:02:29;15.60;;;6.73;;
6842;SDS011;3460;52.028;8.916;2022-12-18T03:05:03;18.13;;;6.87;;
6842;SDS011;3460;52.028;8.916;2022-12-18T03:07:35;14.00;;;7.43;;
6842;SDS011;3460;52.028;8.916;2022-12-18T03:10:05;17.53;;;8.43;;
6842;SDS011;3460;52.028;8.916;2022-12-18T03:12:36;10.93;;;6.33;;
6842;SDS011;3460;52.028;8.916;2022-12-18T03:15:09;15.43;;;8.00;;
6842;SDS011;3460;52.028;8.916;2022-12-18T03:17:38;13.10;;;7.30;;
6842;SDS011;3460;52.028;8.916;2022-12-18T03:20:12;15.57;;;7.73;;
6842;SDS011;3460;52.028;8.916;2022-12-18T03:22:41;13.00;;;7.10;;
6842;SDS011;3460;52.028;8.916;2022-12-18T03:25:12;13.07;;;7.43;;
6842;SDS011;3460;52.028;8.916;2022-12-18T03:27:42;14.03;;;8.07;;
6842;SDS011;3460;52.028;8.916;2022-12-18T03:30:14;15.03;;;7.57;;
6842;SDS011;3460;52.028;8.916;2022-12-18T03:32:43;14.67;;;7.77;;
6842;SDS011;3460;52.028;8.916;2022-12-18T03:35:14;18.20;;;7.77;;
6842;SDS011;3460;52.028;8.916;2022-12-18T03:37:46;16.27;;;8.63;;
6842;SDS011;3460;52.028;8.916;2022-12-18T03:40:13;18.60;;;8.27;;
6842;SDS011;3460;52.028;8.916;2022-12-18T03:42:43;15.97;;;8.27;;
6842;SDS011;3460;52.028;8.916;2022-12-18T03:45:18;12.20;;;6.93;;
6842;SDS011;3460;52.028;8.916;2022-12-18T03:47:52;13.27;;;7.93;;
6842;SDS011;3460;52.028;8.916;2022-12-18T03:50:25;12.97;;;6.83;;
6842;SDS011;3460;52.028;8.916;2022-12-18T03:53:02;12.17;;;6.50;;
6842;SDS011;3460;52.028;8.916;2022-12-18T03:55:38;14.27;;;7.07;;
6842;SDS011;3460;52.028;8.916;2022-12-18T03:58:07;13.30;;;6.30;;
6842;SDS011;3460;52.028;8.916;2022-12-18T04:00:36;10.80;;;6.13;;
6842;SDS011;3460;52.028;8.916;2022-12-18T04:03:03;11.87;;;7.20;;
6842;SDS011;3460;52.028;8.916;2022-12-18T04:05:31;14.60;;;7.10;;
6842;SDS011;3460;52.028;8.916;2022-12-18T04:08:00;14.53;;;7.97;;
6842;SDS011;3460;52.028;8.916;2022-12-18T04:10:28;13.00;;;5.93;;
6842;SDS011;3460;52.028;8.916;2022-12-18T04:12:55;12.37;;;7.23;;
6842;SDS011;3460;52.028;8.916;2022-12-18T04:15:24;16.60;;;7.67;;
6842;SDS011;3460;52.028;8.916;2022-12-18T04:17:50;15.53;;;8.57;;
6842;SDS011;3460;52.028;8.916;2022-12-18T04:20:17;13.80;;;8.07;;
6842;SDS011;3460;52.028;8.916;2022-12-18T04:22:44;14.63;;;8.83;;
6842;SDS011;3460;52.028;8.916;2022-12-18T04:25:11;14.07;;;7.60;;
6842;SDS011;3460;52.028;8.916;2022-12-18T04:27:38;16.60;;;8.00;;
6842;SDS011;3460;52.028;8.916;2022-12-18T04:30:05;16.60;;;8.07;;
6842;SDS011;3460;52.028;8.916;2022-12-18T04:32:34;14.70;;;8.07;;
6842;SDS011;3460;52.028;8.916;2022-12-18T04:35:01;15.27;;;7.70;;
6842;SDS011;3460;52.028;8.916;2022-12-18T04:37:29;14.33;;;8.33;;
6842;SDS011;3460;52.028;8.916;2022-12-18T04:39:55;18.80;;;8.10;;
6842;SDS011;3460;52.028;8.916;2022-12-18T04:42:22;15.87;;;7.00;;
6842;SDS011;3460;52.028;8.916;2022-12-18T04:44:49;13.93;;;6.47;;
6842;SDS011;3460;52.028;8.916;2022-12-18T04:47:15;14.63;;;7.80;;
6842;SDS011;3460;52.028;8.916;2022-12-18T04:49:43;12.97;;;7.90;;
6842;SDS011;3460;52.028;8.916;2022-12-18T04:52:10;14.47;;;8.47;;
6842;SDS011;3460;52.028;8.916;2022-12-18T04:54:37;13.27;;;7.20;;
6842;SDS011;3460;52.028;8.916;2022-12-18T04:57:03;15.20;;;7.20;;
6842;SDS011;3460;52.028;8.916;2022-12-18T04:59:30;16.07;;;7.70;;
6842;SDS011;3460;52.028;8.916;2022-12-18T05:01:57;15.27;;;7.60;;
6842;SDS011;3460;52.028;8.916;2022-12-18T05:04:23;16.67;;;8.20;;
6842;SDS011;3460;52.028;8.916;2022-12-18T05:06:52;15.30;;;7.57;;
6842;SDS011;3460;52.028;8.916;2022-12-18T05:09:18;16.00;;;8.00;;
6842;SDS011;3460;52.028;8.916;2022-12-18T05:11:45;16.20;;;6.40;;
6842;SDS011;3460;52.028;8.916;2022-12-18T05:14:12;14.17;;;7.30;;
6842;SDS011;3460;52.028;8.916;2022-12-18T05:16:38;16.70;;;7.60;;
6842;SDS011;3460;52.028;8.916;2022-12-18T05:19:05;10.80;;;6.17;;
6842;SDS011;3460;52.028;8.916;2022-12-18T05:21:32;16.57;;;7.70;;
6842;SDS011;3460;52.028;8.916;2022-12-18T05:24:00;13.20;;;7.30;;
6842;SDS011;3460;52.028;8.916;2022-12-18T05:26:26;13.60;;;7.67;;
6842;SDS011;3460;52.028;8.916;2022-12-18T05:28:53;12.63;;;5.93;;
6842;SDS011;3460;52.028;8.916;2022-12-18T05:31:20;10.93;;;6.43;;
6842;SDS011;3460;52.028;8.916;2022-12-18T05:33:46;15.50;;;7.43;;
6842;SDS011;3460;52.028;8.916;2022-12-18T05:36:13;12.27;;;6.37;;
6842;SDS011;3460;52.028;8.916;2022-12-18T05:38:40;10.83;;;5.70;;
6842;SDS011;3460;52.028;8.916;2022-12-18T05:41:08;15.47;;;7.63;;
6842;SDS011;3460;52.028;8.916;2022-12-18T05:43:35;14.77;;;7.60;;
6842;SDS011;3460;52.028;8.916;2022-12-18T05:46:04;12.57;;;5.80;;
6842;SDS011;3460;52.028;8.916;2022-12-18T05:48:32;15.03;;;7.30;;
6842;SDS011;3460;52.028;8.916;2022-12-18T05:51:02;14.97;;;8.07;;
6842;SDS011;3460;52.028;8.916;2022-12-18T05:53:30;14.17;;;7.57;;
6842;SDS011;3460;52.028;8.916;2022-12-18T05:55:59;15.87;;;7.80;;
6842;SDS011;3460;52.028;8.916;2022-12-18T05:58:28;14.57;;;7.80;;
6842;SDS011;3460;52.028;8.916;2022-12-18T06:00:55;12.63;;;6.97;;
6842;SDS011;3460;52.028;8.916;2022-12-18T06:03:22;11.07;;;5.83;;
6842;SDS011;3460;52.028;8.916;2022-12-18T06:05:48;18.73;;;8.60;;
6842;SDS011;3460;52.028;8.916;2022-12-18T06:08:15;11.83;;;5.53;;
6842;SDS011;3460;52.028;8.916;2022-12-18T06:10:42;12.40;;;6.47;;
6842;SDS011;3460;52.028;8.916;2022-12-18T06:13:17;12.03;;;7.03;;
6842;SDS011;3460;52.028;8.916;2022-12-18T06:15:45;10.23;;;5.77;;
6842;SDS011;3460;52.028;8.916;2022-12-18T06:18:12;13.53;;;7.57;;
6842;SDS011;3460;52.028;8.916;2022-12-18T06:20:39;13.20;;;6.93;;
6842;SDS011;3460;52.028;8.916;2022-12-18T06:23:06;10.00;;;6.30;;
6842;SDS011;3460;52.028;8.916;2022-12-18T06:25:36;11.87;;;5.97;;
6842;SDS011;3460;52.028;8.916;2022-12-18T06:28:03;13.57;;;7.33;;
6842;SDS011;3460;52.028;8.916;2022-12-18T06:30:30;12.37;;;7.13;;
6842;SDS011;3460;52.028;8.916;2022-12-18T06:32:58;13.60;;;7.37;;
6842;SDS011;3460;52.028;8.916;2022-12-18T06:35:25;14.80;;;7.57;;
6842;SDS011;3460;52.028;8.916;2022-12-18T06:37:52;15.00;;;8.03;;
6842;SDS011;3460;52.028;8.916;2022-12-18T06:40:18;15.77;;;8.33;;
6842;SDS011;3460;52.028;8.916;2022-12-18T06:42:45;11.07;;;6.67;;
6842;SDS011;3460;52.028;8.916;2022-12-18T06:45:12;17.20;;;7.90;;
6842;SDS011;3460;52.028;8.916;2022-12-18T06:47:38;11.37;;;6.53;;
6842;SDS011;3460;52.028;8.916;2022-12-18T06:50:07;17.63;;;8.17;;
6842;SDS011;3460;52.028;8.916;2022-12-18T06:52:34;14.17;;;7.93;;
6842;SDS011;3460;52.028;8.916;2022-12-18T06:55:01;13.37;;;7.63;;
6842;SDS011;3460;52.028;8.916;2022-12-18T06:57:28;13.53;;;7.73;;
6842;SDS011;3460;52.028;8.916;2022-12-18T06:59:55;14.23;;;8.10;;
6842;SDS011;3460;52.028;8.916;2022-12-18T07:02:22;14.23;;;7.30;;
6842;SDS011;3460;52.028;8.916;2022-12-18T07:04:49;15.13;;;7.90;;
6842;SDS011;3460;52.028;8.916;2022-12-18T07:07:17;17.80;;;8.73;;
6842;SDS011;3460;52.028;8.916;2022-12-18T07:09:43;13.10;;;7.57;;
6842;SDS011;3460;52.028;8.916;2022-12-18T07:12:10;14.57;;;8.17;;
6842;SDS011;3460;52.028;8.916;2022-12-18T07:14:37;23.90;;;9.07;;
6842;SDS011;3460;52.028;8.916;2022-12-18T07:17:03;18.10;;;7.97;;
6842;SDS011;3460;52.028;8.916;2022-12-18T07:19:30;16.90;;;8.03;;
6842;SDS011;3460;52.028;8.916;2022-12-18T07:21:57;18.17;;;8.23;;
6842;SDS011;3460;52.028;8.916;2022-12-18T07:24:25;11.33;;;6.30;;
6842;SDS011;3460;52.028;8.916;2022-12-18T07:26:52;13.40;;;7.87;;
6842;SDS011;3460;52.028;8.916;2022-12-18T07:29:18;12.37;;;6.87;;
6842;SDS011;3460;52.028;8.916;2022-12-18T07:31:45;10.07;;;5.43;;
6842;SDS011;3460;52.028;8.916;2022-12-18T07:34:12;9.93;;;5.13;;
6842;SDS011;3460;52.028;8.916;2022-12-18T07:36:40;14.53;;;8.00;;
6842;SDS011;3460;52.028;8.916;2022-12-18T07:39:07;16.10;;;6.83;;
6842;SDS011;3460;52.028;8.916;2022-12-18T07:41:35;15.03;;;7.63;;
6842;SDS011;3460;52.028;8.916;2022-12-18T07:44:02;13.13;;;6.67;;
6842;SDS011;3460;52.028;8.916;2022-12-18T07:46:28;13.17;;;6.77;;
6842;SDS011;3460;52.028;8.916;2022-12-18T07:48:55;12.67;;;6.40;;
6842;SDS011;3460;52.028;8.916;2022-12-18T07:51:22;9.60;;;4.73;;
6842;SDS011;3460;52.028;8.916;2022-12-18T07:53:48;11.13;;;5.77;;
6842;SDS011;3460;52.028;8.916;2022-12-18T07:56:15;10.30;;;6.23;;
6842;SDS011;3460;52.028;8.916;2022-12-18T07:58:43;8.73;;;5.20;;
6842;SDS011;3460;52.028;8.916;2022-12-18T08:01:10;11.23;;;4.97;;
6842;SDS011;3460;52.028;8.916;2022-12-18T08:03:38;15.83;;;6.60;;
6842;SDS011;3460;52.028;8.916;2022-12-18T08:06:07;9.57;;;5.67;;
6842;SDS011;3460;52.028;8.916;2022-12-18T08:08:35;13.00;;;6.23;;
6842;SDS011;3460;52.028;8.916;2022-12-18T08:11:02;14.53;;;7.03;;
6842;SDS011;3460;52.028;8.916;2022-12-18T08:13:29;10.00;;;5.93;;
6842;SDS011;3460;52.028;8.916;2022-12-18T08:15:57;7.17;;;4.47;;
6842;SDS011;3460;52.028;8.916;2022-12-18T08:18:24;10.23;;;5.70;;
6842;SDS011;3460;52.028;8.916;2022-12-18T08:20:51;10.90;;;5.83;;
6842;SDS011;3460;52.028;8.916;2022-12-18T08:23:18;13.50;;;6.00;;
6842;SDS011;3460;52.028;8.916;2022-12-18T08:25:45;11.47;;;7.40;;
6842;SDS011;3460;52.028;8.916;2022-12-18T08:28:11;11.00;;;6.10;;
6842;SDS011;3460;52.028;8.916;2022-12-18T08:30:38;6.03;;;3.90;;
6842;SDS011;3460;52.028;8.916;2022-12-18T08:33:06;7.37;;;5.00;;
6842;SDS011;3460;52.028;8.916;2022-12-18T08:35:34;6.90;;;4.33;;
6842;SDS011;3460;52.028;8.916;2022-12-18T08:38:01;10.80;;;5.47;;
6842;SDS011;3460;52.028;8.916;2022-12-18T08:40:28;9.80;;;5.23;;
6842;SDS011;3460;52.028;8.916;2022-12-18T08:42:55;7.13;;;4.83;;
6842;SDS011;3460;52.028;8.916;2022-12-18T08:45:40;8.67;;;4.67;;
6842;SDS011;3460;52.028;8.916;2022-12-18T08:48:08;6.97;;;4.20;;
6842;SDS011;3460;52.028;8.916;2022-12-18T08:50:34;7.77;;;4.87;;
6842;SDS011;3460;52.028;8.916;2022-12-18T08:53:01;13.77;;;5.30;;
6842;SDS011;3460;52.028;8.916;2022-12-18T08:55:28;6.23;;;3.80;;
6842;SDS011;3460;52.028;8.916;2022-12-18T08:57:55;7.03;;;3.70;;
6842;SDS011;3460;52.028;8.916;2022-12-18T09:00:21;6.07;;;4.33;;
6842;SDS011;3460;52.028;8.916;2022-12-18T09:02:48;7.70;;;4.87;;
6842;SDS011;3460;52.028;8.916;2022-12-18T09:05:16;11.30;;;4.53;;
6842;SDS011;3460;52.028;8.916;2022-12-18T09:07:43;5.83;;;3.73;;
6842;SDS011;3460;52.028;8.916;2022-12-18T09:10:09;11.00;;;6.07;;
6842;SDS011;3460;52.028;8.916;2022-12-18T09:12:36;7.40;;;4.77;;
6842;SDS011;3460;52.028;8.916;2022-12-18T09:15:03;8.97;;;5.00;;
6842;SDS011;3460;52.028;8.916;2022-12-18T09:17:31;11.00;;;4.87;;
6842;SDS011;3460;52.028;8.916;2022-12-18T09:19:57;7.80;;;5.07;;
6842;SDS011;3460;52.028;8.916;2022-12-18T09:22:25;8.37;;;4.97;;
6842;SDS011;3460;52.028;8.916;2022-12-18T09:24:52;8.77;;;4.87;;
6842;SDS011;3460;52.028;8.916;2022-12-18T09:27:19;8.87;;;4.83;;
6842;SDS011;3460;52.028;8.916;2022-12-18T09:29:45;8.10;;;4.70;;
6842;SDS011;3460;52.028;8.916;2022-12-18T09:32:12;9.17;;;5.50;;
6842;SDS011;3460;52.028;8.916;2022-12-18T09:34:39;10.83;;;5.70;;
6842;SDS011;3460;52.028;8.916;2022-12-18T09:37:06;11.37;;;5.87;;
6842;SDS011;3460;52.028;8.916;2022-12-18T09:39:34;7.17;;;4.23;;
6842;SDS011;3460;52.028;8.916;2022-12-18T09:42:00;9.37;;;5.33;;
6842;SDS011;3460;52.028;8.916;2022-12-18T09:44:28;11.27;;;5.47;;
6842;SDS011;3460;52.028;8.916;2022-12-18T09:47:08;10.50;;;5.90;;
6842;SDS011;3460;52.028;8.916;2022-12-18T09:49:39;7.97;;;5.23;;
6842;SDS011;3460;52.028;8.916;2022-12-18T09:52:09;10.20;;;6.40;;
6842;SDS011;3460;52.028;8.916;2022-12-18T09:54:43;11.07;;;6.23;;
6842;SDS011;3460;52.028;8.916;2022-12-18T09:57:14;11.23;;;6.63;;
6842;SDS011;3460;52.028;8.916;2022-12-18T09:59:43;9.13;;;5.63;;
6842;SDS011;3460;52.028;8.916;2022-12-18T10:02:16;11.63;;;6.27;;
6842;SDS011;3460;52.028;8.916;2022-12-18T10:04:48;11.20;;;6.07;;
6842;SDS011;3460;52.028;8.916;2022-12-18T10:07:40;11.10;;;5.43;;
6842;SDS011;3460;52.028;8.916;2022-12-18T10:10:18;11.07;;;6.23;;
6842;SDS011;3460;52.028;8.916;2022-12-18T10:12:54;8.00;;;5.30;;
6842;SDS011;3460;52.028;8.916;2022-12-18T10:15:29;13.33;;;6.90;;
6842;SDS011;3460;52.028;8.916;2022-12-18T10:18:03;9.80;;;6.07;;
6842;SDS011;3460;52.028;8.916;2022-12-18T10:20:38;12.73;;;6.60;;
6842;SDS011;3460;52.028;8.916;2022-12-18T10:23:12;10.83;;;6.60;;
6842;SDS011;3460;52.028;8.916;2022-12-18T10:25:49;10.17;;;6.53;;
6842;SDS011;3460;52.028;8.916;2022-12-18T10:28:20;12.60;;;6.37;;
6842;SDS011;3460;52.028;8.916;2022-12-18T10:30:47;11.80;;;6.33;;
6842;SDS011;3460;52.028;8.916;2022-12-18T10:33:14;13.53;;;7.10;;
6842;SDS011;3460;52.028;8.916;2022-12-18T10:35:43;11.83;;;6.53;;
6842;SDS011;3460;52.028;8.916;2022-12-18T10:38:20;11.97;;;6.70;;
6842;SDS011;3460;52.028;8.916;2022-12-18T10:40:51;13.90;;;6.83;;
6842;SDS011;3460;52.028;8.916;2022-12-18T10:43:21;12.23;;;6.67;;
6842;SDS011;3460;52.028;8.916;2022-12-18T10:46:00;8.67;;;5.73;;
6842;SDS011;3460;52.028;8.916;2022-12-18T10:48:52;12.00;;;5.70;;
6842;SDS011;3460;52.028;8.916;2022-12-18T10:51:21;9.93;;;5.70;;
6842;SDS011;3460;52.028;8.916;2022-12-18T10:53:51;12.30;;;6.13;;
6842;SDS011;3460;52.028;8.916;2022-12-18T10:56:22;11.27;;;6.50;;
6842;SDS011;3460;52.028;8.916;2022-12-18T10:58:55;9.90;;;5.70;;
6842;SDS011;3460;52.028;8.916;2022-12-18T11:01:23;11.10;;;5.60;;
6842;SDS011;3460;52.028;8.916;2022-12-18T11:03:58;10.47;;;6.43;;
6842;SDS011;3460;52.028;8.916;2022-12-18T11:06:27;10.60;;;6.70;;
6842;SDS011;3460;52.028;8.916;2022-12-18T11:08:57;8.57;;;5.77;;
6842;SDS011;3460;52.028;8.916;2022-12-18T11:11:27;11.13;;;6.47;;
6842;SDS011;3460;52.028;8.916;2022-12-18T11:13:57;10.73;;;5.93;;
6842;SDS011;3460;52.028;8.916;2022-12-18T11:16:26;14.37;;;7.00;;
6842;SDS011;3460;52.028;8.916;2022-12-18T11:18:55;11.40;;;5.90;;
6842;SDS011;3460;52.028;8.916;2022-12-18T11:21:39;11.37;;;6.37;;
6842;SDS011;3460;52.028;8.916;2022-12-18T11:24:08;11.17;;;6.80;;
6842;SDS011;3460;52.028;8.916;2022-12-18T11:26:47;12.47;;;6.53;;
6842;SDS011;3460;52.028;8.916;2022-12-18T11:29:16;15.23;;;7.23;;
6842;SDS011;3460;52.028;8.916;2022-12-18T11:31:44;8.27;;;5.30;;
6842;SDS011;3460;52.028;8.916;2022-12-18T11:34:11;13.13;;;7.33;;
6842;SDS011;3460;52.028;8.916;2022-12-18T11:36:44;9.33;;;6.80;;
6842;SDS011;3460;52.028;8.916;2022-12-18T11:39:12;13.10;;;5.80;;
6842;SDS011;3460;52.028;8.916;2022-12-18T11:41:47;13.50;;;6.07;;
6842;SDS011;3460;52.028;8.916;2022-12-18T11:44:46;9.90;;;5.73;;
6842;SDS011;3460;52.028;8.916;2022-12-18T11:47:19;9.17;;;5.83;;
6842;SDS011;3460;52.028;8.916;2022-12-18T11:49:54;8.63;;;5.37;;
6842;SDS011;3460;52.028;8.916;2022-12-18T11:52:26;12.43;;;6.57;;
6842;SDS011;3460;52.028;8.916;2022-12-18T11:54:58;7.70;;;5.07;;
6842;SDS011;3460;52.028;8.916;2022-12-18T11:57:31;10.67;;;5.47;;
6842;SDS011;3460;52.028;8.916;2022-12-18T12:00:09;10.27;;;6.23;;
6842;SDS011;3460;52.028;8.916;2022-12-18T12:02:48;11.30;;;6.30;;
6842;SDS011;3460;52.028;8.916;2022-12-18T12:05:38;10.30;;;5.17;;
6842;SDS011;3460;52.028;8.916;2022-12-18T12:08:12;10.57;;;5.67;;
6842;SDS011;3460;52.028;8.916;2022-12-18T12:10:48;8.60;;;5.50;;
6842;SDS011;3460;52.028;8.916;2022-12-18T12:13:26;9.00;;;4.80;;
6842;SDS011;3460;52.028;8.916;2022-12-18T12:16:07;10.07;;;5.10;;
6842;SDS011;3460;52.028;8.916;2022-12-18T12:18:44;8.57;;;4.90;;
6842;SDS011;3460;52.028;8.916;2022-12-18T12:21:22;8.77;;;5.10;;
6842;SDS011;3460;52.028;8.916;2022-12-18T12:23:56;9.17;;;5.00;;
6842;SDS011;3460;52.028;8.916;2022-12-18T12:26:30;7.40;;;4.70;;
6842;SDS011;3460;52.028;8.916;2022-12-18T12:29:07;7.27;;;4.40;;
6842;SDS011;3460;52.028;8.916;2022-12-18T12:31:45;7.07;;;4.73;;
6842;SDS011;3460;52.028;8.916;2022-12-18T12:34:26;7.07;;;4.90;;
6842;SDS011;3460;52.028;8.916;2022-12-18T12:37:05;7.63;;;4.93;;
6842;SDS011;3460;52.028;8.916;2022-12-18T12:39:42;7.47;;;4.67;;
6842;SDS011;3460;52.028;8.916;2022-12-18T12:42:14;20.33;;;10.00;;
6842;SDS011;3460;52.028;8.916;2022-12-18T12:45:05;7.87;;;4.57;;
6842;SDS011;3460;52.028;8.916;2022-12-18T12:47:37;7.43;;;4.90;;
6842;SDS011;3460;52.028;8.916;2022-12-18T12:50:11;9.13;;;4.73;;
6842;SDS011;3460;52.028;8.916;2022-12-18T12:52:42;6.97;;;4.27;;
6842;SDS011;3460;52.028;8.916;2022-12-18T12:55:13;8.60;;;4.73;;
6842;SDS011;3460;52.028;8.916;2022-12-18T12:57:45;7.90;;;4.87;;
6842;SDS011;3460;52.028;8.916;2022-12-18T13:00:18;9.53;;;5.17;;
6842;SDS011;3460;52.028;8.916;2022-12-18T13:02:47;8.03;;;4.73;;
6842;SDS011;3460;52.028;8.916;2022-12-18T13:05:19;9.83;;;4.40;;
6842;SDS011;3460;52.028;8.916;2022-12-18T13:07:52;8.67;;;4.20;;
6842;SDS011;3460;52.028;8.916;2022-12-18T13:10:25;9.07;;;4.90;;
6842;SDS011;3460;52.028;8.916;2022-12-18T13:12:58;7.73;;;4.70;;
6842;SDS011;3460;52.028;8.916;2022-12-18T13:15:27;6.23;;;4.13;;
6842;SDS011;3460;52.028;8.916;2022-12-18T13:18:05;6.23;;;4.10;;
6842;SDS011;3460;52.028;8.916;2022-12-18T13:20:48;6.43;;;3.37;;
6842;SDS011;3460;52.028;8.916;2022-12-18T13:28:59;7.73;;;4.67;;
6842;SDS011;3460;52.028;8.916;2022-12-18T13:34:34;9.73;;;5.03;;
6842;SDS011;3460;52.028;8.916;2022-12-18T13:43:22;8.13;;;4.50;;
6842;SDS011;3460;52.028;8.916;2022-12-18T13:45:58;6.97;;;4.30;;
6842;SDS011;3460;52.028;8.916;2022-12-18T13:48:47;7.10;;;4.00;;
6842;SDS011;3460;52.028;8.916;2022-12-18T13:51:18;8.17;;;4.50;;
6842;SDS011;3460;52.028;8.916;2022-12-18T13:53:47;7.50;;;4.73;;
6842;SDS011;3460;52.028;8.916;2022-12-18T13:56:16;8.60;;;5.13;;
6842;SDS011;3460;52.028;8.916;2022-12-18T13:58:43;9.97;;;5.43;;
6842;SDS011;3460;52.028;8.916;2022-12-18T14:01:20;7.37;;;4.57;;
6842;SDS011;3460;52.028;8.916;2022-12-18T14:03:48;7.03;;;4.37;;
6842;SDS011;3460;52.028;8.916;2022-12-18T14:06:15;7.83;;;4.30;;
6842;SDS011;3460;52.028;8.916;2022-12-18T14:08:44;5.27;;;4.23;;
6842;SDS011;3460;52.028;8.916;2022-12-18T14:11:18;7.67;;;4.47;;
6842;SDS011;3460;52.028;8.916;2022-12-18T14:13:48;7.70;;;4.70;;
6842;SDS011;3460;52.028;8.916;2022-12-18T14:16:15;8.80;;;4.80;;
6842;SDS011;3460;52.028;8.916;2022-12-18T14:18:44;7.70;;;4.50;;
6842;SDS011;3460;52.028;8.916;2022-12-18T14:21:18;5.90;;;4.17;;
6842;SDS011;3460;52.028;8.916;2022-12-18T14:24:02;9.47;;;4.50;;
6842;SDS011;3460;52.028;8.916;2022-12-18T14:26:31;8.13;;;4.90;;
6842;SDS011;3460;52.028;8.916;2022-12-18T14:28:59;10.10;;;5.07;;
6842;SDS011;3460;52.028;8.916;2022-12-18T14:31:27;6.60;;;3.93;;
6842;SDS011;3460;52.028;8.916;2022-12-18T14:33:55;7.70;;;3.83;;
6842;SDS011;3460;52.028;8.916;2022-12-18T14:36:24;7.20;;;4.00;;
6842;SDS011;3460;52.028;8.916;2022-12-18T14:38:53;9.90;;;4.83;;
6842;SDS011;3460;52.028;8.916;2022-12-18T14:41:21;8.17;;;4.57;;
6842;SDS011;3460;52.028;8.916;2022-12-18T14:43:49;7.73;;;4.20;;
6842;SDS011;3460;52.028;8.916;2022-12-18T14:46:27;8.67;;;4.63;;
6842;SDS011;3460;52.028;8.916;2022-12-18T14:48:59;7.53;;;4.30;;
6842;SDS011;3460;52.028;8.916;2022-12-18T14:51:29;6.77;;;4.17;;
6842;SDS011;3460;52.028;8.916;2022-12-18T14:53:58;8.43;;;4.83;;
6842;SDS011;3460;52.028;8.916;2022-12-18T14:56:27;9.47;;;4.77;;
6842;SDS011;3460;52.028;8.916;2022-12-18T14:58:56;11.40;;;4.67;;
6842;SDS011;3460;52.028;8.916;2022-12-18T15:01:25;9.30;;;5.00;;
6842;SDS011;3460;52.028;8.916;2022-12-18T15:03:54;4.53;;;2.97;;
6842;SDS011;3460;52.028;8.916;2022-12-18T15:06:27;7.40;;;4.60;;
6842;SDS011;3460;52.028;8.916;2022-12-18T15:08:57;10.53;;;5.37;;
6842;SDS011;3460;52.028;8.916;2022-12-18T15:11:26;6.17;;;3.93;;
6842;SDS011;3460;52.028;8.916;2022-12-18T15:13:54;8.23;;;4.20;;
6842;SDS011;3460;52.028;8.916;2022-12-18T15:16:23;6.73;;;4.10;;
6842;SDS011;3460;52.028;8.916;2022-12-18T15:18:50;8.03;;;4.93;;
6842;SDS011;3460;52.028;8.916;2022-12-18T15:21:18;7.63;;;4.70;;
6842;SDS011;3460;52.028;8.916;2022-12-18T15:23:48;7.03;;;4.70;;
6842;SDS011;3460;52.028;8.916;2022-12-18T15:26:17;9.17;;;4.60;;
6842;SDS011;3460;52.028;8.916;2022-12-18T15:28:45;9.10;;;4.90;;
6842;SDS011;3460;52.028;8.916;2022-12-18T15:31:21;8.33;;;4.80;;
6842;SDS011;3460;52.028;8.916;2022-12-18T15:34:09;9.57;;;5.00;;
6842;SDS011;3460;52.028;8.916;2022-12-18T15:36:44;9.07;;;3.53;;
6842;SDS011;3460;52.028;8.916;2022-12-18T15:39:12;5.63;;;3.93;;